Monte Vista, Colorado
Current Conditions -  °F | °C
As of 11:10 AM on Saturday 25 Oct 2014 (Local Time) from KRCV Reporting Station
Clear Clear  
Wind Chill: 58°   Ceiling: Unl
Heat Index: 58°   Visibility: 10mi
Dew Point: 26°   Wind: 5mph
Humidity: 29%   Direction: 360°N
Pressure: 30.43"   Gusts: NA
Location:  37.58°N, 106.15°W
Report Text: KRCV 251710Z AUTO 36004KT 10SM CLR 15/M03 A3043 RMK AO2 T01471035
Loading
Personal Weather Stations






























Interactive Weather Map
Tropical Storm Tracking
New forecast layout! Learn more

10-Day Weather Forecast

Advertisements
Track Severe Weather on mobile